sensor_id;sensor_type;location;lat;lon;timestamp;temperature;humidity
41644;DHT22;44236;48.098;11.582;2023-10-19T00:01:13;20.30;49.00
41644;DHT22;44236;48.098;11.582;2023-10-19T00:03:41;20.30;49.00
41644;DHT22;44236;48.098;11.582;2023-10-19T00:06:07;20.30;49.10
41644;DHT22;44236;48.098;11.582;2023-10-19T00:08:32;20.30;49.20
41644;DHT22;44236;48.098;11.582;2023-10-19T00:11:08;20.30;49.10
41644;DHT22;44236;48.098;11.582;2023-10-19T00:13:36;20.30;49.20
41644;DHT22;44236;48.098;11.582;2023-10-19T00:16:07;20.20;49.20
41644;DHT22;44236;48.098;11.582;2023-10-19T00:18:42;20.20;49.20
41644;DHT22;44236;48.098;11.582;2023-10-19T00:21:13;20.20;49.20
41644;DHT22;44236;48.098;11.582;2023-10-19T00:23:59;20.20;49.20
41644;DHT22;44236;48.098;11.582;2023-10-19T00:26:30;20.20;49.20
41644;DHT22;44236;48.098;11.582;2023-10-19T00:28:56;20.20;49.30
41644;DHT22;44236;48.098;11.582;2023-10-19T00:31:23;20.20;49.30
41644;DHT22;44236;48.098;11.582;2023-10-19T00:33:49;20.20;49.30
41644;DHT22;44236;48.098;11.582;2023-10-19T00:36:19;20.20;49.30
41644;DHT22;44236;48.098;11.582;2023-10-19T00:38:48;20.10;49.30
41644;DHT22;44236;48.098;11.582;2023-10-19T00:41:25;20.10;49.30
41644;DHT22;44236;48.098;11.582;2023-10-19T00:43:59;20.10;49.40
41644;DHT22;44236;48.098;11.582;2023-10-19T00:46:38;20.10;49.40
41644;DHT22;44236;48.098;11.582;2023-10-19T00:49:04;20.10;49.40
41644;DHT22;44236;48.098;11.582;2023-10-19T00:51:37;20.10;49.40
41644;DHT22;44236;48.098;11.582;2023-10-19T00:54:07;20.10;49.40
41644;DHT22;44236;48.098;11.582;2023-10-19T00:56:36;20.10;49.40
41644;DHT22;44236;48.098;11.582;2023-10-19T00:59:02;20.10;49.40
41644;DHT22;44236;48.098;11.582;2023-10-19T01:01:51;20.10;49.40
41644;DHT22;44236;48.098;11.582;2023-10-19T01:04:19;20.10;49.50
41644;DHT22;44236;48.098;11.582;2023-10-19T01:06:49;20.10;49.50
41644;DHT22;44236;48.098;11.582;2023-10-19T01:09:38;20.10;49.50
41644;DHT22;44236;48.098;11.582;2023-10-19T01:12:04;20.10;49.50
41644;DHT22;44236;48.098;11.582;2023-10-19T01:17:31;20.00;49.50
41644;DHT22;44236;48.098;11.582;2023-10-19T01:19:59;20.00;49.50
41644;DHT22;44236;48.098;11.582;2023-10-19T01:22:24;20.00;49.50
41644;DHT22;44236;48.098;11.582;2023-10-19T01:24:52;20.00;49.60
41644;DHT22;44236;48.098;11.582;2023-10-19T01:27:19;20.00;49.50
41644;DHT22;44236;48.098;11.582;2023-10-19T01:29:45;20.00;49.50
41644;DHT22;44236;48.098;11.582;2023-10-19T01:32:12;20.00;49.60
41644;DHT22;44236;48.098;11.582;2023-10-19T01:34:40;20.00;49.60
41644;DHT22;44236;48.098;11.582;2023-10-19T01:37:06;20.00;49.60
41644;DHT22;44236;48.098;11.582;2023-10-19T01:39:34;20.00;49.60
41644;DHT22;44236;48.098;11.582;2023-10-19T01:42:01;20.00;49.70
41644;DHT22;44236;48.098;11.582;2023-10-19T01:44:29;20.00;49.60
41644;DHT22;44236;48.098;11.582;2023-10-19T01:46:55;20.00;49.60
41644;DHT22;44236;48.098;11.582;2023-10-19T01:49:21;20.00;49.60
41644;DHT22;44236;48.098;11.582;2023-10-19T01:51:53;20.00;49.70
41644;DHT22;44236;48.098;11.582;2023-10-19T01:54:23;20.00;49.70
41644;DHT22;44236;48.098;11.582;2023-10-19T01:56:54;20.00;49.70
41644;DHT22;44236;48.098;11.582;2023-10-19T01:59:23;20.00;49.70
41644;DHT22;44236;48.098;11.582;2023-10-19T02:01:55;20.00;49.70
41644;DHT22;44236;48.098;11.582;2023-10-19T02:04:23;20.00;49.70
41644;DHT22;44236;48.098;11.582;2023-10-19T02:06:49;20.00;49.70
41644;DHT22;44236;48.098;11.582;2023-10-19T02:09:17;19.90;49.60
41644;DHT22;44236;48.098;11.582;2023-10-19T02:11:48;20.00;49.70
41644;DHT22;44236;48.098;11.582;2023-10-19T02:14:15;19.90;49.70
41644;DHT22;44236;48.098;11.582;2023-10-19T02:16:48;19.90;49.70
41644;DHT22;44236;48.098;11.582;2023-10-19T02:19:16;19.90;49.70
41644;DHT22;44236;48.098;11.582;2023-10-19T02:21:42;19.90;49.70
41644;DHT22;44236;48.098;11.582;2023-10-19T02:24:10;19.90;49.70
41644;DHT22;44236;48.098;11.582;2023-10-19T02:26:40;19.90;49.70
41644;DHT22;44236;48.098;11.582;2023-10-19T02:29:06;19.90;49.70
41644;DHT22;44236;48.098;11.582;2023-10-19T02:31:39;19.90;49.60
41644;DHT22;44236;48.098;11.582;2023-10-19T02:34:10;19.90;49.70
41644;DHT22;44236;48.098;11.582;2023-10-19T02:36:41;19.90;49.70
41644;DHT22;44236;48.098;11.582;2023-10-19T02:39:09;19.90;49.60
41644;DHT22;44236;48.098;11.582;2023-10-19T02:41:35;19.90;49.60
41644;DHT22;44236;48.098;11.582;2023-10-19T02:44:02;19.90;49.60
41644;DHT22;44236;48.098;11.582;2023-10-19T02:46:38;19.90;49.60
41644;DHT22;44236;48.098;11.582;2023-10-19T02:49:07;19.90;49.60
41644;DHT22;44236;48.098;11.582;2023-10-19T02:51:41;19.90;49.70
41644;DHT22;44236;48.098;11.582;2023-10-19T02:54:13;19.90;49.60
41644;DHT22;44236;48.098;11.582;2023-10-19T02:56:50;19.90;49.60
41644;DHT22;44236;48.098;11.582;2023-10-19T02:59:18;19.90;49.20
41644;DHT22;44236;48.098;11.582;2023-10-19T03:01:51;19.90;49.60
41644;DHT22;44236;48.098;11.582;2023-10-19T03:04:17;19.90;49.60
41644;DHT22;44236;48.098;11.582;2023-10-19T03:06:43;19.90;49.60
41644;DHT22;44236;48.098;11.582;2023-10-19T03:09:09;19.90;49.60
41644;DHT22;44236;48.098;11.582;2023-10-19T03:11:42;19.90;49.60
41644;DHT22;44236;48.098;11.582;2023-10-19T03:14:09;19.90;50.00
41644;DHT22;44236;48.098;11.582;2023-10-19T03:16:37;19.90;49.60
41644;DHT22;44236;48.098;11.582;2023-10-19T03:19:06;19.90;49.60
41644;DHT22;44236;48.098;11.582;2023-10-19T03:21:33;19.90;49.60
41644;DHT22;44236;48.098;11.582;2023-10-19T03:23:59;19.90;49.50
41644;DHT22;44236;48.098;11.582;2023-10-19T03:26:38;19.90;49.60
41644;DHT22;44236;48.098;11.582;2023-10-19T03:29:08;19.90;49.60
41644;DHT22;44236;48.098;11.582;2023-10-19T03:31:38;19.90;49.60
41644;DHT22;44236;48.098;11.582;2023-10-19T03:34:12;19.90;49.50
41644;DHT22;44236;48.098;11.582;2023-10-19T03:36:43;19.90;49.50
41644;DHT22;44236;48.098;11.582;2023-10-19T03:39:10;19.90;49.50
41644;DHT22;44236;48.098;11.582;2023-10-19T03:41:43;19.90;49.50
41644;DHT22;44236;48.098;11.582;2023-10-19T03:44:10;19.90;49.50
41644;DHT22;44236;48.098;11.582;2023-10-19T03:46:58;19.90;49.50
41644;DHT22;44236;48.098;11.582;2023-10-19T03:49:30;19.90;49.50
41644;DHT22;44236;48.098;11.582;2023-10-19T03:52:02;19.90;49.50
41644;DHT22;44236;48.098;11.582;2023-10-19T03:54:33;19.90;49.50
41644;DHT22;44236;48.098;11.582;2023-10-19T03:57:03;19.90;49.90
41644;DHT22;44236;48.098;11.582;2023-10-19T03:59:31;19.90;49.40
41644;DHT22;44236;48.098;11.582;2023-10-19T04:01:59;19.90;49.40
41644;DHT22;44236;48.098;11.582;2023-10-19T04:04:26;19.90;49.50
41644;DHT22;44236;48.098;11.582;2023-10-19T04:06:52;19.90;49.50
41644;DHT22;44236;48.098;11.582;2023-10-19T04:09:24;19.90;49.50
41644;DHT22;44236;48.098;11.582;2023-10-19T04:11:56;19.90;49.40
41644;DHT22;44236;48.098;11.582;2023-10-19T04:14:22;19.90;49.40
41644;DHT22;44236;48.098;11.582;2023-10-19T04:16:48;19.90;49.40
41644;DHT22;44236;48.098;11.582;2023-10-19T04:19:14;19.90;49.40
41644;DHT22;44236;48.098;11.582;2023-10-19T04:21:41;20.00;49.40
41644;DHT22;44236;48.098;11.582;2023-10-19T04:24:12;19.90;49.40
41644;DHT22;44236;48.098;11.582;2023-10-19T04:26:39;19.90;49.40
41644;DHT22;44236;48.098;11.582;2023-10-19T04:29:06;19.90;49.30
41644;DHT22;44236;48.098;11.582;2023-10-19T04:31:43;19.60;49.30
41644;DHT22;44236;48.098;11.582;2023-10-19T04:34:18;19.10;49.80
41644;DHT22;44236;48.098;11.582;2023-10-19T04:36:47;19.00;50.40
41644;DHT22;44236;48.098;11.582;2023-10-19T04:39:12;19.00;50.00
41644;DHT22;44236;48.098;11.582;2023-10-19T04:41:41;19.10;50.20
41644;DHT22;44236;48.098;11.582;2023-10-19T04:44:07;19.20;50.10
41644;DHT22;44236;48.098;11.582;2023-10-19T04:46:36;19.30;50.00
41644;DHT22;44236;48.098;11.582;2023-10-19T04:49:02;19.40;49.60
41644;DHT22;44236;48.098;11.582;2023-10-19T04:51:29;19.50;49.40
41644;DHT22;44236;48.098;11.582;2023-10-19T04:53:55;19.50;49.20
41644;DHT22;44236;48.098;11.582;2023-10-19T04:56:21;19.60;49.20
41644;DHT22;44236;48.098;11.582;2023-10-19T04:58:47;19.60;48.90
41644;DHT22;44236;48.098;11.582;2023-10-19T05:01:14;19.70;48.90
41644;DHT22;44236;48.098;11.582;2023-10-19T05:03:43;20.50;49.30
41644;DHT22;44236;48.098;11.582;2023-10-19T05:06:09;19.70;48.80
41644;DHT22;44236;48.098;11.582;2023-10-19T05:08:35;19.70;48.70
41644;DHT22;44236;48.098;11.582;2023-10-19T05:11:02;19.80;48.80
41644;DHT22;44236;48.098;11.582;2023-10-19T05:13:31;19.80;48.70
41644;DHT22;44236;48.098;11.582;2023-10-19T05:15:58;19.80;48.60
41644;DHT22;44236;48.098;11.582;2023-10-19T05:18:25;19.80;48.60
41644;DHT22;44236;48.098;11.582;2023-10-19T05:20:52;19.80;48.50
41644;DHT22;44236;48.098;11.582;2023-10-19T05:23:24;19.80;48.50
41644;DHT22;44236;48.098;11.582;2023-10-19T05:25:53;19.80;48.60
41644;DHT22;44236;48.098;11.582;2023-10-19T05:28:24;19.80;48.60
41644;DHT22;44236;48.098;11.582;2023-10-19T05:30:51;19.80;48.60
41644;DHT22;44236;48.098;11.582;2023-10-19T05:33:16;19.80;48.50
41644;DHT22;44236;48.098;11.582;2023-10-19T05:35:48;19.80;48.50
41644;DHT22;44236;48.098;11.582;2023-10-19T05:38:14;19.90;48.50
41644;DHT22;44236;48.098;11.582;2023-10-19T05:40:41;19.90;48.40
41644;DHT22;44236;48.098;11.582;2023-10-19T05:43:08;19.90;48.50
41644;DHT22;44236;48.098;11.582;2023-10-19T05:45:34;19.90;48.20
41644;DHT22;44236;48.098;11.582;2023-10-19T05:48:01;19.90;48.80
41644;DHT22;44236;48.098;11.582;2023-10-19T05:50:29;19.90;48.30
41644;DHT22;44236;48.098;11.582;2023-10-19T05:52:55;19.90;48.30
41644;DHT22;44236;48.098;11.582;2023-10-19T05:55:20;19.90;48.90
41644;DHT22;44236;48.098;11.582;2023-10-19T05:57:49;19.90;48.60
41644;DHT22;44236;48.098;11.582;2023-10-19T06:00:15;19.90;48.60
41644;DHT22;44236;48.098;11.582;2023-10-19T06:02:48;19.90;48.40
41644;DHT22;44236;48.098;11.582;2023-10-19T06:05:17;19.90;48.40
41644;DHT22;44236;48.098;11.582;2023-10-19T06:07:48;20.00;48.50
41644;DHT22;44236;48.098;11.582;2023-10-19T06:10:15;20.00;48.50
41644;DHT22;44236;48.098;11.582;2023-10-19T06:12:48;20.00;48.50
41644;DHT22;44236;48.098;11.582;2023-10-19T06:15:16;20.00;48.40
41644;DHT22;44236;48.098;11.582;2023-10-19T06:17:43;20.00;48.50
41644;DHT22;44236;48.098;11.582;2023-10-19T06:20:10;20.00;48.40
41644;DHT22;44236;48.098;11.582;2023-10-19T06:22:55;20.00;48.40
41644;DHT22;44236;48.098;11.582;2023-10-19T06:25:24;20.00;48.50
41644;DHT22;44236;48.098;11.582;2023-10-19T06:27:52;20.00;48.40
41644;DHT22;44236;48.098;11.582;2023-10-19T06:30:19;20.00;48.40
41644;DHT22;44236;48.098;11.582;2023-10-19T06:32:48;20.00;48.40
41644;DHT22;44236;48.098;11.582;2023-10-19T06:35:14;20.00;48.30
41644;DHT22;44236;48.098;11.582;2023-10-19T06:37:39;20.00;48.30
41644;DHT22;44236;48.098;11.582;2023-10-19T06:40:06;20.00;48.20
41644;DHT22;44236;48.098;11.582;2023-10-19T06:42:32;20.00;48.10
41644;DHT22;44236;48.098;11.582;2023-10-19T06:44:58;20.10;48.20
41644;DHT22;44236;48.098;11.582;2023-10-19T06:47:24;20.10;48.20
41644;DHT22;44236;48.098;11.582;2023-10-19T06:49:49;20.10;48.20
41644;DHT22;44236;48.098;11.582;2023-10-19T06:52:15;20.10;48.30
41644;DHT22;44236;48.098;11.582;2023-10-19T06:54:41;20.10;47.80
41644;DHT22;44236;48.098;11.582;2023-10-19T06:57:07;20.00;48.20
41644;DHT22;44236;48.098;11.582;2023-10-19T06:59:36;19.60;48.60
41644;DHT22;44236;48.098;11.582;2023-10-19T07:02:02;20.10;49.00
41644;DHT22;44236;48.098;11.582;2023-10-19T07:04:29;20.10;49.60
41644;DHT22;44236;48.098;11.582;2023-10-19T07:07:10;20.10;49.70
41644;DHT22;44236;48.098;11.582;2023-10-19T07:09:36;20.10;49.30
41644;DHT22;44236;48.098;11.582;2023-10-19T07:12:01;20.10;48.70
41644;DHT22;44236;48.098;11.582;2023-10-19T07:14:27;20.10;48.60
41644;DHT22;44236;48.098;11.582;2023-10-19T07:16:53;20.10;48.70
41644;DHT22;44236;48.098;11.582;2023-10-19T07:19:18;20.10;48.60
41644;DHT22;44236;48.098;11.582;2023-10-19T07:21:44;20.10;49.50
41644;DHT22;44236;48.098;11.582;2023-10-19T07:24:14;20.10;49.30
41644;DHT22;44236;48.098;11.582;2023-10-19T07:26:40;20.10;49.00
41644;DHT22;44236;48.098;11.582;2023-10-19T07:29:19;20.20;49.00
41644;DHT22;44236;48.098;11.582;2023-10-19T07:31:45;20.20;49.60
41644;DHT22;44236;48.098;11.582;2023-10-19T07:34:11;20.20;49.00
41644;DHT22;44236;48.098;11.582;2023-10-19T07:36:40;20.20;48.90
41644;DHT22;44236;48.098;11.582;2023-10-19T07:39:08;20.20;48.90
41644;DHT22;44236;48.098;11.582;2023-10-19T07:41:40;20.20;48.70
41644;DHT22;44236;48.098;11.582;2023-10-19T07:44:06;20.20;48.80
41644;DHT22;44236;48.098;11.582;2023-10-19T07:46:31;20.20;48.80
41644;DHT22;44236;48.098;11.582;2023-10-19T07:48:57;20.20;48.70
41644;DHT22;44236;48.098;11.582;2023-10-19T07:51:26;20.20;48.80
41644;DHT22;44236;48.098;11.582;2023-10-19T07:53:51;20.20;48.80
41644;DHT22;44236;48.098;11.582;2023-10-19T07:56:17;20.30;48.90
41644;DHT22;44236;48.098;11.582;2023-10-19T07:58:43;20.20;48.90
41644;DHT22;44236;48.098;11.582;2023-10-19T08:01:08;20.30;49.00
41644;DHT22;44236;48.098;11.582;2023-10-19T08:03:34;20.30;49.10
41644;DHT22;44236;48.098;11.582;2023-10-19T08:06:00;20.30;49.10
41644;DHT22;44236;48.098;11.582;2023-10-19T08:08:26;20.30;49.10
41644;DHT22;44236;48.098;11.582;2023-10-19T08:10:59;20.30;49.10
41644;DHT22;44236;48.098;11.582;2023-10-19T08:13:25;20.30;49.20
41644;DHT22;44236;48.098;11.582;2023-10-19T08:15:52;20.30;49.10
41644;DHT22;44236;48.098;11.582;2023-10-19T08:18:17;20.30;49.10
41644;DHT22;44236;48.098;11.582;2023-10-19T08:20:44;20.30;49.10
41644;DHT22;44236;48.098;11.582;2023-10-19T08:23:11;20.30;49.00
41644;DHT22;44236;48.098;11.582;2023-10-19T08:25:39;20.30;49.10
41644;DHT22;44236;48.098;11.582;2023-10-19T08:28:05;20.30;49.10
41644;DHT22;44236;48.098;11.582;2023-10-19T08:30:32;20.30;49.10
41644;DHT22;44236;48.098;11.582;2023-10-19T08:32:59;20.30;49.20
41644;DHT22;44236;48.098;11.582;2023-10-19T08:35:26;20.30;49.90
41644;DHT22;44236;48.098;11.582;2023-10-19T08:37:53;20.40;50.10
41644;DHT22;44236;48.098;11.582;2023-10-19T08:40:19;20.40;50.30
41644;DHT22;44236;48.098;11.582;2023-10-19T08:42:45;20.40;50.30
41644;DHT22;44236;48.098;11.582;2023-10-19T08:45:12;20.40;50.30
41644;DHT22;44236;48.098;11.582;2023-10-19T08:47:59;20.40;50.40
41644;DHT22;44236;48.098;11.582;2023-10-19T08:50:28;20.40;50.00
41644;DHT22;44236;48.098;11.582;2023-10-19T08:52:55;20.40;50.20
41644;DHT22;44236;48.098;11.582;2023-10-19T08:55:21;20.40;50.30
41644;DHT22;44236;48.098;11.582;2023-10-19T08:57:51;20.40;50.60
41644;DHT22;44236;48.098;11.582;2023-10-19T09:00:18;20.40;50.20
41644;DHT22;44236;48.098;11.582;2023-10-19T09:02:47;20.40;50.20
41644;DHT22;44236;48.098;11.582;2023-10-19T09:05:14;20.40;50.70
41644;DHT22;44236;48.098;11.582;2023-10-19T09:07:48;20.40;50.50
41644;DHT22;44236;48.098;11.582;2023-10-19T09:10:23;20.40;52.10
41644;DHT22;44236;48.098;11.582;2023-10-19T09:13:07;20.40;51.90
41644;DHT22;44236;48.098;11.582;2023-10-19T09:15:38;20.40;51.50
41644;DHT22;44236;48.098;11.582;2023-10-19T09:18:18;20.40;50.90
41644;DHT22;44236;48.098;11.582;2023-10-19T09:20:49;20.40;53.20
41644;DHT22;44236;48.098;11.582;2023-10-19T09:23:25;20.30;53.70
41644;DHT22;44236;48.098;11.582;2023-10-19T09:25:56;20.30;54.70
41644;DHT22;44236;48.098;11.582;2023-10-19T09:28:22;20.20;55.30
41644;DHT22;44236;48.098;11.582;2023-10-19T09:30:49;20.20;55.50
41644;DHT22;44236;48.098;11.582;2023-10-19T09:33:16;20.20;56.00
41644;DHT22;44236;48.098;11.582;2023-10-19T09:35:47;20.20;55.60
41644;DHT22;44236;48.098;11.582;2023-10-19T09:38:15;20.20;55.80
41644;DHT22;44236;48.098;11.582;2023-10-19T09:40:41;20.10;56.10
41644;DHT22;44236;48.098;11.582;2023-10-19T09:43:13;20.10;56.40
41644;DHT22;44236;48.098;11.582;2023-10-19T09:45:41;20.20;56.80
41644;DHT22;44236;48.098;11.582;2023-10-19T09:48:08;20.10;57.30
41644;DHT22;44236;48.098;11.582;2023-10-19T09:50:34;20.20;57.10
41644;DHT22;44236;48.098;11.582;2023-10-19T09:53:01;20.10;57.50
41644;DHT22;44236;48.098;11.582;2023-10-19T09:55:37;20.10;58.00
41644;DHT22;44236;48.098;11.582;2023-10-19T09:58:12;20.20;57.30
41644;DHT22;44236;48.098;11.582;2023-10-19T10:00:47;20.20;57.40
41644;DHT22;44236;48.098;11.582;2023-10-19T10:06:09;20.20;56.10
41644;DHT22;44236;48.098;11.582;2023-10-19T10:08:39;20.20;56.80
41644;DHT22;44236;48.098;11.582;2023-10-19T10:11:20;20.20;55.50
41644;DHT22;44236;48.098;11.582;2023-10-19T10:13:46;20.20;55.40
41644;DHT22;44236;48.098;11.582;2023-10-19T10:16:17;20.20;53.20
41644;DHT22;44236;48.098;11.582;2023-10-19T10:18:43;20.30;52.80
41644;DHT22;44236;48.098;11.582;2023-10-19T10:21:11;20.40;52.70
41644;DHT22;44236;48.098;11.582;2023-10-19T10:23:46;20.40;52.60
41644;DHT22;44236;48.098;11.582;2023-10-19T10:26:14;20.40;52.60
41644;DHT22;44236;48.098;11.582;2023-10-19T10:28:41;20.40;52.40
41644;DHT22;44236;48.098;11.582;2023-10-19T10:31:22;20.40;52.30
41644;DHT22;44236;48.098;11.582;2023-10-19T10:33:51;20.40;52.20
41644;DHT22;44236;48.098;11.582;2023-10-19T10:36:20;20.50;52.30
41644;DHT22;44236;48.098;11.582;2023-10-19T10:38:48;20.50;52.30
41644;DHT22;44236;48.098;11.582;2023-10-19T10:41:24;20.50;52.30
41644;DHT22;44236;48.098;11.582;2023-10-19T10:43:57;20.50;52.70
41644;DHT22;44236;48.098;11.582;2023-10-19T10:46:25;20.50;52.40
41644;DHT22;44236;48.098;11.582;2023-10-19T10:48:53;20.50;52.30
41644;DHT22;44236;48.098;11.582;2023-10-19T10:53:53;20.50;52.40
41644;DHT22;44236;48.098;11.582;2023-10-19T10:56:21;20.50;52.30
41644;DHT22;44236;48.098;11.582;2023-10-19T10:58:47;20.50;52.00
41644;DHT22;44236;48.098;11.582;2023-10-19T11:01:13;20.60;52.20
41644;DHT22;44236;48.098;11.582;2023-10-19T11:03:42;20.60;52.10
41644;DHT22;44236;48.098;11.582;2023-10-19T11:06:09;20.60;52.10
41644;DHT22;44236;48.098;11.582;2023-10-19T11:08:36;20.60;52.20
41644;DHT22;44236;48.098;11.582;2023-10-19T11:11:04;20.60;52.00
41644;DHT22;44236;48.098;11.582;2023-10-19T11:13:30;20.60;52.10
41644;DHT22;44236;48.098;11.582;2023-10-19T11:15:59;20.60;52.00
41644;DHT22;44236;48.098;11.582;2023-10-19T11:21:05;20.70;52.10
41644;DHT22;44236;48.098;11.582;2023-10-19T11:23:45;20.60;52.20
41644;DHT22;44236;48.098;11.582;2023-10-19T11:26:16;20.70;52.20
41644;DHT22;44236;48.098;11.582;2023-10-19T11:28:42;20.70;53.50
41644;DHT22;44236;48.098;11.582;2023-10-19T11:31:20;20.70;55.50
41644;DHT22;44236;48.098;11.582;2023-10-19T11:33:51;20.70;54.40
41644;DHT22;44236;48.098;11.582;2023-10-19T11:36:18;20.70;53.50
41644;DHT22;44236;48.098;11.582;2023-10-19T11:38:45;20.80;54.70
41644;DHT22;44236;48.098;11.582;2023-10-19T11:41:12;21.10;52.30
41644;DHT22;44236;48.098;11.582;2023-10-19T11:43:43;21.30;51.90
41644;DHT22;44236;48.098;11.582;2023-10-19T11:46:10;21.70;51.30
41644;DHT22;44236;48.098;11.582;2023-10-19T11:48:37;22.00;50.70
41644;DHT22;44236;48.098;11.582;2023-10-19T11:51:03;22.30;50.00
41644;DHT22;44236;48.098;11.582;2023-10-19T11:53:36;22.60;49.40
41644;DHT22;44236;48.098;11.582;2023-10-19T11:56:11;22.90;48.80
41644;DHT22;44236;48.098;11.582;2023-10-19T11:58:39;23.30;48.10
41644;DHT22;44236;48.098;11.582;2023-10-19T12:01:08;23.50;47.40
41644;DHT22;44236;48.098;11.582;2023-10-19T12:03:37;23.80;47.00
41644;DHT22;44236;48.098;11.582;2023-10-19T12:06:06;24.00;46.50
41644;DHT22;44236;48.098;11.582;2023-10-19T12:08:35;24.30;46.00
41644;DHT22;44236;48.098;11.582;2023-10-19T12:11:02;24.40;46.80
41644;DHT22;44236;48.098;11.582;2023-10-19T12:13:29;24.40;49.20
41644;DHT22;44236;48.098;11.582;2023-10-19T12:15:54;24.20;50.60
41644;DHT22;44236;48.098;11.582;2023-10-19T12:18:24;24.10;51.20
41644;DHT22;44236;48.098;11.582;2023-10-19T12:20:52;24.00;51.30
41644;DHT22;44236;48.098;11.582;2023-10-19T12:23:22;24.00;50.90
41644;DHT22;44236;48.098;11.582;2023-10-19T12:25:49;24.10;50.40
41644;DHT22;44236;48.098;11.582;2023-10-19T12:28:14;24.30;50.10
41644;DHT22;44236;48.098;11.582;2023-10-19T12:30:41;24.40;50.00
41644;DHT22;44236;48.098;11.582;2023-10-19T12:33:07;24.40;49.30
41644;DHT22;44236;48.098;11.582;2023-10-19T12:35:40;24.30;49.10
41644;DHT22;44236;48.098;11.582;2023-10-19T12:38:22;24.40;48.70
41644;DHT22;44236;48.098;11.582;2023-10-19T12:40:48;24.50;48.30
41644;DHT22;44236;48.098;11.582;2023-10-19T12:43:16;24.70;48.40
41644;DHT22;44236;48.098;11.582;2023-10-19T12:45:44;24.80;47.60
41644;DHT22;44236;48.098;11.582;2023-10-19T12:48:13;25.00;47.10
41644;DHT22;44236;48.098;11.582;2023-10-19T12:50:39;25.10;47.10
41644;DHT22;44236;48.098;11.582;2023-10-19T12:53:06;25.00;47.30
41644;DHT22;44236;48.098;11.582;2023-10-19T12:55:32;25.10;47.80
41644;DHT22;44236;48.098;11.582;2023-10-19T12:57:58;25.30;46.50
41644;DHT22;44236;48.098;11.582;2023-10-19T13:00:25;25.50;47.10
41644;DHT22;44236;48.098;11.582;2023-10-19T13:02:53;25.60;45.40
41644;DHT22;44236;48.098;11.582;2023-10-19T13:05:45;25.80;45.20
41644;DHT22;44236;48.098;11.582;2023-10-19T13:08:15;25.60;44.60
41644;DHT22;44236;48.098;11.582;2023-10-19T13:10:43;25.80;44.50
41644;DHT22;44236;48.098;11.582;2023-10-19T13:13:13;26.00;43.90
41644;DHT22;44236;48.098;11.582;2023-10-19T13:15:44;26.00;43.50
41644;DHT22;44236;48.098;11.582;2023-10-19T13:18:15;25.80;43.50
41644;DHT22;44236;48.098;11.582;2023-10-19T13:20:50;25.90;43.60
41644;DHT22;44236;48.098;11.582;2023-10-19T13:23:18;26.00;43.30
41644;DHT22;44236;48.098;11.582;2023-10-19T13:25:47;26.00;43.50
41644;DHT22;44236;48.098;11.582;2023-10-19T13:28:20;26.10;43.00
41644;DHT22;44236;48.098;11.582;2023-10-19T13:30:47;26.20;43.00
41644;DHT22;44236;48.098;11.582;2023-10-19T13:33:13;26.20;43.10
41644;DHT22;44236;48.098;11.582;2023-10-19T13:35:40;26.20;42.80
41644;DHT22;44236;48.098;11.582;2023-10-19T13:38:07;26.40;42.70
41644;DHT22;44236;48.098;11.582;2023-10-19T13:40:37;26.20;43.00
41644;DHT22;44236;48.098;11.582;2023-10-19T13:43:06;26.10;43.60
41644;DHT22;44236;48.098;11.582;2023-10-19T13:45:37;26.30;43.30
41644;DHT22;44236;48.098;11.582;2023-10-19T13:48:04;26.60;42.60
41644;DHT22;44236;48.098;11.582;2023-10-19T13:50:31;26.70;42.80
41644;DHT22;44236;48.098;11.582;2023-10-19T13:52:59;26.80;42.30
41644;DHT22;44236;48.098;11.582;2023-10-19T13:55:29;27.00;42.60
41644;DHT22;44236;48.098;11.582;2023-10-19T13:57:55;27.10;42.00
41644;DHT22;44236;48.098;11.582;2023-10-19T14:00:22;27.20;41.40
41644;DHT22;44236;48.098;11.582;2023-10-19T14:02:56;27.20;41.40
41644;DHT22;44236;48.098;11.582;2023-10-19T14:05:23;27.10;41.40
41644;DHT22;44236;48.098;11.582;2023-10-19T14:07:50;27.00;41.70
41644;DHT22;44236;48.098;11.582;2023-10-19T14:10:17;26.80;41.80
41644;DHT22;44236;48.098;11.582;2023-10-19T14:12:45;26.60;42.10
41644;DHT22;44236;48.098;11.582;2023-10-19T14:15:16;26.40;42.30
41644;DHT22;44236;48.098;11.582;2023-10-19T14:17:46;26.30;42.80
41644;DHT22;44236;48.098;11.582;2023-10-19T14:20:16;26.10;43.40
41644;DHT22;44236;48.098;11.582;2023-10-19T14:22:43;25.90;43.50
41644;DHT22;44236;48.098;11.582;2023-10-19T14:25:11;25.80;44.20
41644;DHT22;44236;48.098;11.582;2023-10-19T14:27:43;25.60;44.50
41644;DHT22;44236;48.098;11.582;2023-10-19T14:32:39;25.40;45.80
41644;DHT22;44236;48.098;11.582;2023-10-19T14:35:05;25.20;44.80
41644;DHT22;44236;48.098;11.582;2023-10-19T14:37:34;25.10;45.60
41644;DHT22;44236;48.098;11.582;2023-10-19T14:40:01;24.90;47.40
41644;DHT22;44236;48.098;11.582;2023-10-19T14:42:28;24.90;46.60
41644;DHT22;44236;48.098;11.582;2023-10-19T14:44:58;24.80;46.90
41644;DHT22;44236;48.098;11.582;2023-10-19T14:47:23;24.60;46.90
41644;DHT22;44236;48.098;11.582;2023-10-19T14:49:49;24.50;47.80
41644;DHT22;44236;48.098;11.582;2023-10-19T14:52:15;24.40;48.10
41644;DHT22;44236;48.098;11.582;2023-10-19T14:54:41;24.30;48.00
41644;DHT22;44236;48.098;11.582;2023-10-19T14:57:06;24.20;48.20
41644;DHT22;44236;48.098;11.582;2023-10-19T14:59:33;24.10;48.20
41644;DHT22;44236;48.098;11.582;2023-10-19T15:02:01;24.00;48.40
41644;DHT22;44236;48.098;11.582;2023-10-19T15:04:28;23.90;48.50
41644;DHT22;44236;48.098;11.582;2023-10-19T15:06:53;23.90;49.60
41644;DHT22;44236;48.098;11.582;2023-10-19T15:09:19;23.80;49.10
41644;DHT22;44236;48.098;11.582;2023-10-19T15:11:51;23.70;49.20
41644;DHT22;44236;48.098;11.582;2023-10-19T15:14:18;23.70;50.10
41644;DHT22;44236;48.098;11.582;2023-10-19T15:16:43;23.60;49.50
41644;DHT22;44236;48.098;11.582;2023-10-19T15:19:10;23.60;51.50
41644;DHT22;44236;48.098;11.582;2023-10-19T15:21:39;23.50;50.30
41644;DHT22;44236;48.098;11.582;2023-10-19T15:24:05;23.40;50.20
41644;DHT22;44236;48.098;11.582;2023-10-19T15:26:31;23.40;50.00
41644;DHT22;44236;48.098;11.582;2023-10-19T15:28:57;23.40;51.70
41644;DHT22;44236;48.098;11.582;2023-10-19T15:31:22;23.30;50.50
41644;DHT22;44236;48.098;11.582;2023-10-19T15:33:48;23.20;51.50
41644;DHT22;44236;48.098;11.582;2023-10-19T15:36:14;23.20;51.30
41644;DHT22;44236;48.098;11.582;2023-10-19T15:38:39;23.10;50.60